CheckWX is a tool to help pilots better visualize weather data.  It is not intended as a substitute for an official pre-flight weather briefing.

05:11:47 UTC

KRUG METAR
Rugby Municipal Airport
Rugby, North Dakota, USA
Current

17 mins ago

KRUG 240455Z AUTO 31020G26KT 4SM BR OVC019 M15/M16 A2994 RMK AO2
Observed
Feb-24 @ 04:55 UTC
Wind
  • 310° at 20 KTS
  • Gusting to 26 KTS
Visibility
4 SM
Flight Rules
MVFR
Conditions
Mist
Cloud Levels
  • Overcast at 1,900' AGL
Temperature
-15°C / 5°F
Dewpoint
-16°C / 3°F
Humidity
92%
Altimeter
29.94" Hg
Pressure
1013.92 hPa
Previous

37 mins ago

KRUG 240435Z AUTO 30020KT 6SM BR OVC018 M15/M17 A2993 RMK AO2
Observed
Feb-24 @ 04:35 UTC
Wind
  • 300° at 20 KTS
Visibility
6 SM
Flight Rules
MVFR
Conditions
Mist
Cloud Levels
  • Overcast at 1,800' AGL
Temperature
-15°C / 5°F
Dewpoint
-17°C / 1°F
Humidity
85%
Altimeter
29.93" Hg
Pressure
1013.52 hPa
Previous

57 mins ago

KRUG 240415Z AUTO 30017KT 6SM BR OVC018 M16/M17 A2993 RMK AO2
Observed
Feb-24 @ 04:15 UTC
Wind
  • 300° at 17 KTS
Visibility
6 SM
Flight Rules
MVFR
Conditions
Mist
Cloud Levels
  • Overcast at 1,800' AGL
Temperature
-16°C / 3°F
Dewpoint
-17°C / 1°F
Humidity
92%
Altimeter
29.93" Hg
Pressure
1013.52 hPa